sensor_id;sensor_type;location;lat;lon;timestamp;P1;durP1;ratioP1;P2;durP2;ratioP2
2213;SDS011;1113;42.018;23.986;2023-07-09T00:01:23;10.00;;;6.30;;
2213;SDS011;1113;42.018;23.986;2023-07-09T00:03:50;7.60;;;6.33;;
2213;SDS011;1113;42.018;23.986;2023-07-09T00:06:18;7.27;;;6.57;;
2213;SDS011;1113;42.018;23.986;2023-07-09T00:08:45;7.50;;;6.30;;
2213;SDS011;1113;42.018;23.986;2023-07-09T00:11:13;6.53;;;5.93;;
2213;SDS011;1113;42.018;23.986;2023-07-09T00:13:40;7.83;;;6.30;;
2213;SDS011;1113;42.018;23.986;2023-07-09T00:16:11;9.10;;;6.37;;
2213;SDS011;1113;42.018;23.986;2023-07-09T00:18:39;8.50;;;6.47;;
2213;SDS011;1113;42.018;23.986;2023-07-09T00:21:06;6.27;;;5.67;;
2213;SDS011;1113;42.018;23.986;2023-07-09T00:23:32;7.63;;;6.70;;
2213;SDS011;1113;42.018;23.986;2023-07-09T00:25:59;6.90;;;6.20;;
2213;SDS011;1113;42.018;23.986;2023-07-09T00:28:28;7.90;;;7.07;;
2213;SDS011;1113;42.018;23.986;2023-07-09T00:30:55;7.03;;;6.33;;
2213;SDS011;1113;42.018;23.986;2023-07-09T00:33:22;6.83;;;6.10;;
2213;SDS011;1113;42.018;23.986;2023-07-09T00:35:58;10.40;;;6.57;;
2213;SDS011;1113;42.018;23.986;2023-07-09T00:38:25;9.30;;;6.57;;
2213;SDS011;1113;42.018;23.986;2023-07-09T00:40:58;6.97;;;6.30;;
2213;SDS011;1113;42.018;23.986;2023-07-09T00:46:08;7.60;;;6.30;;
2213;SDS011;1113;42.018;23.986;2023-07-09T00:48:39;6.77;;;6.07;;
2213;SDS011;1113;42.018;23.986;2023-07-09T00:51:10;8.20;;;6.60;;
2213;SDS011;1113;42.018;23.986;2023-07-09T00:53:38;6.80;;;5.80;;
2213;SDS011;1113;42.018;23.986;2023-07-09T00:56:12;7.77;;;6.67;;
2213;SDS011;1113;42.018;23.986;2023-07-09T00:58:40;7.60;;;6.50;;
2213;SDS011;1113;42.018;23.986;2023-07-09T01:01:12;8.40;;;5.80;;
2213;SDS011;1113;42.018;23.986;2023-07-09T01:03:42;8.23;;;6.17;;
2213;SDS011;1113;42.018;23.986;2023-07-09T01:06:13;7.70;;;6.23;;
2213;SDS011;1113;42.018;23.986;2023-07-09T01:08:40;8.10;;;6.07;;
2213;SDS011;1113;42.018;23.986;2023-07-09T01:11:14;7.67;;;6.87;;
2213;SDS011;1113;42.018;23.986;2023-07-09T01:13:41;7.60;;;6.37;;
2213;SDS011;1113;42.018;23.986;2023-07-09T01:16:10;7.60;;;6.30;;
2213;SDS011;1113;42.018;23.986;2023-07-09T01:18:37;6.57;;;5.93;;
2213;SDS011;1113;42.018;23.986;2023-07-09T01:21:09;7.13;;;6.00;;
2213;SDS011;1113;42.018;23.986;2023-07-09T01:23:40;7.20;;;6.33;;
2213;SDS011;1113;42.018;23.986;2023-07-09T01:26:09;7.10;;;6.40;;
2213;SDS011;1113;42.018;23.986;2023-07-09T01:28:36;8.03;;;6.40;;
2213;SDS011;1113;42.018;23.986;2023-07-09T01:31:03;8.50;;;5.87;;
2213;SDS011;1113;42.018;23.986;2023-07-09T01:33:30;7.00;;;5.90;;
2213;SDS011;1113;42.018;23.986;2023-07-09T01:35:57;6.87;;;6.17;;
2213;SDS011;1113;42.018;23.986;2023-07-09T01:38:26;6.83;;;6.00;;
2213;SDS011;1113;42.018;23.986;2023-07-09T01:40:55;7.00;;;6.23;;
2213;SDS011;1113;42.018;23.986;2023-07-09T01:43:25;7.00;;;6.27;;
2213;SDS011;1113;42.018;23.986;2023-07-09T01:45:52;7.33;;;6.07;;
2213;SDS011;1113;42.018;23.986;2023-07-09T01:48:23;6.07;;;5.47;;
2213;SDS011;1113;42.018;23.986;2023-07-09T01:50:50;9.70;;;6.37;;
2213;SDS011;1113;42.018;23.986;2023-07-09T01:53:18;6.90;;;5.97;;
2213;SDS011;1113;42.018;23.986;2023-07-09T01:55:47;6.87;;;6.17;;
2213;SDS011;1113;42.018;23.986;2023-07-09T01:58:14;8.07;;;6.73;;
2213;SDS011;1113;42.018;23.986;2023-07-09T02:00:41;8.07;;;6.50;;
2213;SDS011;1113;42.018;23.986;2023-07-09T02:03:10;9.93;;;7.23;;
2213;SDS011;1113;42.018;23.986;2023-07-09T02:05:37;8.20;;;6.40;;
2213;SDS011;1113;42.018;23.986;2023-07-09T02:08:03;7.70;;;6.80;;
2213;SDS011;1113;42.018;23.986;2023-07-09T02:10:30;7.60;;;6.70;;
2213;SDS011;1113;42.018;23.986;2023-07-09T02:12:59;7.63;;;5.90;;
2213;SDS011;1113;42.018;23.986;2023-07-09T02:15:26;8.33;;;7.10;;
2213;SDS011;1113;42.018;23.986;2023-07-09T02:17:53;7.27;;;6.30;;
2213;SDS011;1113;42.018;23.986;2023-07-09T02:20:20;7.40;;;6.47;;
2213;SDS011;1113;42.018;23.986;2023-07-09T02:22:49;7.10;;;6.40;;
2213;SDS011;1113;42.018;23.986;2023-07-09T02:25:16;7.53;;;6.10;;
2213;SDS011;1113;42.018;23.986;2023-07-09T02:27:43;7.60;;;6.80;;
2213;SDS011;1113;42.018;23.986;2023-07-09T02:30:11;7.07;;;6.30;;
2213;SDS011;1113;42.018;23.986;2023-07-09T02:32:38;8.23;;;7.00;;
2213;SDS011;1113;42.018;23.986;2023-07-09T02:35:07;7.93;;;7.13;;
2213;SDS011;1113;42.018;23.986;2023-07-09T02:37:34;7.83;;;7.03;;
2213;SDS011;1113;42.018;23.986;2023-07-09T02:40:01;7.70;;;7.00;;
2213;SDS011;1113;42.018;23.986;2023-07-09T02:42:29;7.57;;;6.47;;
2213;SDS011;1113;42.018;23.986;2023-07-09T02:44:56;10.07;;;6.63;;
2213;SDS011;1113;42.018;23.986;2023-07-09T02:47:24;7.37;;;6.30;;
2213;SDS011;1113;42.018;23.986;2023-07-09T02:49:51;8.10;;;6.50;;
2213;SDS011;1113;42.018;23.986;2023-07-09T02:52:18;8.47;;;7.67;;
2213;SDS011;1113;42.018;23.986;2023-07-09T02:54:45;7.73;;;6.83;;
2213;SDS011;1113;42.018;23.986;2023-07-09T02:57:12;7.70;;;6.97;;
2213;SDS011;1113;42.018;23.986;2023-07-09T02:59:38;8.20;;;6.40;;
2213;SDS011;1113;42.018;23.986;2023-07-09T03:02:05;7.50;;;6.50;;
2213;SDS011;1113;42.018;23.986;2023-07-09T03:04:34;7.73;;;6.27;;
2213;SDS011;1113;42.018;23.986;2023-07-09T03:07:00;7.70;;;6.50;;
2213;SDS011;1113;42.018;23.986;2023-07-09T03:09:27;7.50;;;6.80;;
2213;SDS011;1113;42.018;23.986;2023-07-09T03:11:54;10.10;;;7.50;;
2213;SDS011;1113;42.018;23.986;2023-07-09T03:14:21;7.80;;;7.03;;
2213;SDS011;1113;42.018;23.986;2023-07-09T03:16:48;8.93;;;7.60;;
2213;SDS011;1113;42.018;23.986;2023-07-09T03:19:15;7.80;;;6.80;;
2213;SDS011;1113;42.018;23.986;2023-07-09T03:21:43;6.80;;;6.17;;
2213;SDS011;1113;42.018;23.986;2023-07-09T03:24:10;7.60;;;6.80;;
2213;SDS011;1113;42.018;23.986;2023-07-09T03:26:43;8.23;;;7.10;;
2213;SDS011;1113;42.018;23.986;2023-07-09T03:29:10;7.47;;;6.40;;
2213;SDS011;1113;42.018;23.986;2023-07-09T03:31:37;7.33;;;6.33;;
2213;SDS011;1113;42.018;23.986;2023-07-09T03:34:04;8.10;;;7.03;;
2213;SDS011;1113;42.018;23.986;2023-07-09T03:36:30;6.83;;;6.10;;
2213;SDS011;1113;42.018;23.986;2023-07-09T03:38:59;7.63;;;6.57;;
2213;SDS011;1113;42.018;23.986;2023-07-09T03:41:25;7.00;;;6.30;;
2213;SDS011;1113;42.018;23.986;2023-07-09T03:43:52;8.67;;;6.43;;
2213;SDS011;1113;42.018;23.986;2023-07-09T03:46:19;7.73;;;6.60;;
2213;SDS011;1113;42.018;23.986;2023-07-09T03:48:46;8.50;;;6.70;;
2213;SDS011;1113;42.018;23.986;2023-07-09T03:51:12;6.90;;;6.20;;
2213;SDS011;1113;42.018;23.986;2023-07-09T03:53:39;9.00;;;7.30;;
2213;SDS011;1113;42.018;23.986;2023-07-09T03:56:07;7.27;;;6.57;;
2213;SDS011;1113;42.018;23.986;2023-07-09T03:58:34;9.47;;;6.47;;
2213;SDS011;1113;42.018;23.986;2023-07-09T04:01:01;9.33;;;6.20;;
2213;SDS011;1113;42.018;23.986;2023-07-09T04:03:28;7.07;;;6.37;;
2213;SDS011;1113;42.018;23.986;2023-07-09T04:05:55;7.67;;;6.97;;
2213;SDS011;1113;42.018;23.986;2023-07-09T04:08:22;7.33;;;6.20;;
2213;SDS011;1113;42.018;23.986;2023-07-09T04:10:48;8.07;;;6.53;;
2213;SDS011;1113;42.018;23.986;2023-07-09T04:13:16;7.23;;;6.53;;
2213;SDS011;1113;42.018;23.986;2023-07-09T04:15:43;7.33;;;6.63;;
2213;SDS011;1113;42.018;23.986;2023-07-09T04:18:10;7.43;;;6.60;;
2213;SDS011;1113;42.018;23.986;2023-07-09T04:20:37;8.03;;;7.23;;
2213;SDS011;1113;42.018;23.986;2023-07-09T04:23:05;11.83;;;10.10;;
2213;SDS011;1113;42.018;23.986;2023-07-09T04:25:32;9.90;;;8.90;;
2213;SDS011;1113;42.018;23.986;2023-07-09T04:27:59;10.33;;;9.23;;
2213;SDS011;1113;42.018;23.986;2023-07-09T04:30:27;8.90;;;7.97;;
2213;SDS011;1113;42.018;23.986;2023-07-09T04:32:54;8.80;;;7.90;;
2213;SDS011;1113;42.018;23.986;2023-07-09T04:35:21;13.17;;;8.37;;
2213;SDS011;1113;42.018;23.986;2023-07-09T04:37:49;8.53;;;7.60;;
2213;SDS011;1113;42.018;23.986;2023-07-09T04:40:17;8.13;;;7.33;;
2213;SDS011;1113;42.018;23.986;2023-07-09T04:42:44;10.70;;;6.67;;
2213;SDS011;1113;42.018;23.986;2023-07-09T04:45:11;6.27;;;5.50;;
2213;SDS011;1113;42.018;23.986;2023-07-09T04:47:39;7.60;;;5.70;;
2213;SDS011;1113;42.018;23.986;2023-07-09T04:50:07;6.53;;;5.57;;
2213;SDS011;1113;42.018;23.986;2023-07-09T04:52:34;5.57;;;4.70;;
2213;SDS011;1113;42.018;23.986;2023-07-09T04:55:01;6.10;;;5.50;;
2213;SDS011;1113;42.018;23.986;2023-07-09T04:57:27;6.50;;;5.80;;
2213;SDS011;1113;42.018;23.986;2023-07-09T04:59:54;7.63;;;6.10;;
2213;SDS011;1113;42.018;23.986;2023-07-09T05:02:21;6.30;;;5.47;;
2213;SDS011;1113;42.018;23.986;2023-07-09T05:04:49;5.00;;;4.30;;
2213;SDS011;1113;42.018;23.986;2023-07-09T05:07:16;5.10;;;4.53;;
2213;SDS011;1113;42.018;23.986;2023-07-09T05:09:43;5.70;;;4.80;;
2213;SDS011;1113;42.018;23.986;2023-07-09T05:12:10;5.10;;;4.60;;
2213;SDS011;1113;42.018;23.986;2023-07-09T05:14:38;7.40;;;5.13;;
2213;SDS011;1113;42.018;23.986;2023-07-09T05:17:05;5.57;;;4.67;;
2213;SDS011;1113;42.018;23.986;2023-07-09T05:19:32;4.93;;;4.43;;
2213;SDS011;1113;42.018;23.986;2023-07-09T05:22:00;5.43;;;4.50;;
2213;SDS011;1113;42.018;23.986;2023-07-09T05:24:27;5.23;;;4.43;;
2213;SDS011;1113;42.018;23.986;2023-07-09T05:26:54;5.77;;;4.87;;
2213;SDS011;1113;42.018;23.986;2023-07-09T05:29:21;6.10;;;5.50;;
2213;SDS011;1113;42.018;23.986;2023-07-09T05:31:48;5.80;;;4.83;;
2213;SDS011;1113;42.018;23.986;2023-07-09T05:34:15;6.33;;;5.00;;
2213;SDS011;1113;42.018;23.986;2023-07-09T05:36:42;5.23;;;4.73;;
2213;SDS011;1113;42.018;23.986;2023-07-09T05:39:11;5.47;;;4.90;;
2213;SDS011;1113;42.018;23.986;2023-07-09T05:41:39;5.97;;;4.73;;
2213;SDS011;1113;42.018;23.986;2023-07-09T05:44:06;7.30;;;5.60;;
2213;SDS011;1113;42.018;23.986;2023-07-09T05:46:34;6.40;;;5.70;;
2213;SDS011;1113;42.018;23.986;2023-07-09T05:49:03;6.70;;;6.00;;
2213;SDS011;1113;42.018;23.986;2023-07-09T05:51:30;8.33;;;6.00;;
2213;SDS011;1113;42.018;23.986;2023-07-09T05:53:57;7.43;;;5.40;;
2213;SDS011;1113;42.018;23.986;2023-07-09T05:56:26;7.63;;;6.30;;
2213;SDS011;1113;42.018;23.986;2023-07-09T05:58:54;6.57;;;5.97;;
2213;SDS011;1113;42.018;23.986;2023-07-09T06:01:21;10.50;;;6.70;;
2213;SDS011;1113;42.018;23.986;2023-07-09T06:03:49;7.63;;;6.93;;
2213;SDS011;1113;42.018;23.986;2023-07-09T06:06:16;8.40;;;6.93;;
2213;SDS011;1113;42.018;23.986;2023-07-09T06:08:43;7.40;;;6.30;;
2213;SDS011;1113;42.018;23.986;2023-07-09T06:11:10;7.90;;;6.10;;
2213;SDS011;1113;42.018;23.986;2023-07-09T06:13:39;7.40;;;6.70;;
2213;SDS011;1113;42.018;23.986;2023-07-09T06:16:06;8.10;;;7.17;;
2213;SDS011;1113;42.018;23.986;2023-07-09T06:18:33;8.40;;;6.73;;
2213;SDS011;1113;42.018;23.986;2023-07-09T06:21:01;7.53;;;6.73;;
2213;SDS011;1113;42.018;23.986;2023-07-09T06:23:29;7.67;;;6.67;;
2213;SDS011;1113;42.018;23.986;2023-07-09T06:25:56;8.47;;;6.33;;
2213;SDS011;1113;42.018;23.986;2023-07-09T06:28:24;10.00;;;6.70;;
2213;SDS011;1113;42.018;23.986;2023-07-09T06:30:53;7.37;;;5.63;;
2213;SDS011;1113;42.018;23.986;2023-07-09T06:33:20;5.90;;;5.30;;
2213;SDS011;1113;42.018;23.986;2023-07-09T06:35:47;9.00;;;5.87;;
2213;SDS011;1113;42.018;23.986;2023-07-09T06:38:15;5.93;;;4.90;;
2213;SDS011;1113;42.018;23.986;2023-07-09T06:40:42;5.37;;;4.47;;
2213;SDS011;1113;42.018;23.986;2023-07-09T06:43:09;6.87;;;4.20;;
2213;SDS011;1113;42.018;23.986;2023-07-09T06:45:36;5.30;;;3.90;;
2213;SDS011;1113;42.018;23.986;2023-07-09T06:48:05;6.03;;;4.23;;
2213;SDS011;1113;42.018;23.986;2023-07-09T06:50:33;4.70;;;4.03;;
2213;SDS011;1113;42.018;23.986;2023-07-09T06:53:00;4.93;;;4.23;;
2213;SDS011;1113;42.018;23.986;2023-07-09T06:55:27;4.57;;;3.70;;
2213;SDS011;1113;42.018;23.986;2023-07-09T06:57:54;4.27;;;3.70;;
2213;SDS011;1113;42.018;23.986;2023-07-09T07:00:21;4.40;;;3.63;;
2213;SDS011;1113;42.018;23.986;2023-07-09T07:02:48;9.23;;;4.97;;
2213;SDS011;1113;42.018;23.986;2023-07-09T07:05:17;6.77;;;4.00;;
2213;SDS011;1113;42.018;23.986;2023-07-09T07:07:44;10.23;;;4.40;;
2213;SDS011;1113;42.018;23.986;2023-07-09T07:10:11;5.23;;;4.50;;
2213;SDS011;1113;42.018;23.986;2023-07-09T07:12:42;6.03;;;4.30;;
2213;SDS011;1113;42.018;23.986;2023-07-09T07:15:10;4.93;;;3.40;;
2213;SDS011;1113;42.018;23.986;2023-07-09T07:17:38;5.23;;;3.90;;
2213;SDS011;1113;42.018;23.986;2023-07-09T07:20:06;4.40;;;3.43;;
2213;SDS011;1113;42.018;23.986;2023-07-09T07:22:35;5.27;;;3.63;;
2213;SDS011;1113;42.018;23.986;2023-07-09T07:25:02;5.87;;;4.13;;
2213;SDS011;1113;42.018;23.986;2023-07-09T07:27:29;5.40;;;3.70;;
2213;SDS011;1113;42.018;23.986;2023-07-09T07:29:57;5.27;;;3.50;;
2213;SDS011;1113;42.018;23.986;2023-07-09T07:32:24;5.20;;;3.77;;
2213;SDS011;1113;42.018;23.986;2023-07-09T07:34:51;4.83;;;4.00;;
2213;SDS011;1113;42.018;23.986;2023-07-09T07:37:20;5.37;;;4.30;;
2213;SDS011;1113;42.018;23.986;2023-07-09T07:39:49;5.20;;;4.10;;
2213;SDS011;1113;42.018;23.986;2023-07-09T07:42:16;5.47;;;4.10;;
2213;SDS011;1113;42.018;23.986;2023-07-09T07:44:43;5.80;;;4.03;;
2213;SDS011;1113;42.018;23.986;2023-07-09T07:47:10;4.67;;;3.60;;
2213;SDS011;1113;42.018;23.986;2023-07-09T07:49:38;6.30;;;3.73;;
2213;SDS011;1113;42.018;23.986;2023-07-09T07:52:06;4.33;;;3.70;;
2213;SDS011;1113;42.018;23.986;2023-07-09T07:54:34;6.40;;;3.97;;
2213;SDS011;1113;42.018;23.986;2023-07-09T07:57:03;5.30;;;4.37;;
2213;SDS011;1113;42.018;23.986;2023-07-09T07:59:30;4.20;;;3.80;;
2213;SDS011;1113;42.018;23.986;2023-07-09T08:02:00;6.43;;;4.30;;
2213;SDS011;1113;42.018;23.986;2023-07-09T08:04:27;5.13;;;3.87;;
2213;SDS011;1113;42.018;23.986;2023-07-09T08:06:54;7.30;;;4.23;;
2213;SDS011;1113;42.018;23.986;2023-07-09T08:09:22;5.50;;;3.83;;
2213;SDS011;1113;42.018;23.986;2023-07-09T08:11:49;5.17;;;4.23;;
2213;SDS011;1113;42.018;23.986;2023-07-09T08:14:18;4.77;;;3.90;;
2213;SDS011;1113;42.018;23.986;2023-07-09T08:16:45;4.50;;;3.90;;
2213;SDS011;1113;42.018;23.986;2023-07-09T08:19:12;6.50;;;3.93;;
2213;SDS011;1113;42.018;23.986;2023-07-09T08:21:39;5.70;;;3.80;;
2213;SDS011;1113;42.018;23.986;2023-07-09T08:24:06;5.90;;;4.40;;
2213;SDS011;1113;42.018;23.986;2023-07-09T08:26:33;6.53;;;4.13;;
2213;SDS011;1113;42.018;23.986;2023-07-09T08:29:03;5.73;;;5.13;;
2213;SDS011;1113;42.018;23.986;2023-07-09T08:31:32;6.63;;;3.97;;
2213;SDS011;1113;42.018;23.986;2023-07-09T08:33:59;4.73;;;4.27;;
2213;SDS011;1113;42.018;23.986;2023-07-09T08:36:26;5.03;;;4.30;;
2213;SDS011;1113;42.018;23.986;2023-07-09T08:38:53;16.17;;;5.20;;
2213;SDS011;1113;42.018;23.986;2023-07-09T08:41:25;6.53;;;4.47;;
2213;SDS011;1113;42.018;23.986;2023-07-09T08:43:55;5.30;;;4.07;;
2213;SDS011;1113;42.018;23.986;2023-07-09T08:46:26;6.43;;;4.43;;
2213;SDS011;1113;42.018;23.986;2023-07-09T08:48:58;6.17;;;4.10;;
2213;SDS011;1113;42.018;23.986;2023-07-09T08:51:28;4.37;;;3.77;;
2213;SDS011;1113;42.018;23.986;2023-07-09T08:53:56;5.73;;;4.33;;
2213;SDS011;1113;42.018;23.986;2023-07-09T08:56:24;5.23;;;4.23;;
2213;SDS011;1113;42.018;23.986;2023-07-09T08:58:52;7.00;;;4.50;;
2213;SDS011;1113;42.018;23.986;2023-07-09T09:01:20;7.10;;;4.07;;
2213;SDS011;1113;42.018;23.986;2023-07-09T09:03:49;4.90;;;4.07;;
2213;SDS011;1113;42.018;23.986;2023-07-09T09:06:19;7.60;;;3.93;;
2213;SDS011;1113;42.018;23.986;2023-07-09T09:08:49;4.13;;;3.23;;
2213;SDS011;1113;42.018;23.986;2023-07-09T09:11:19;5.67;;;4.20;;
2213;SDS011;1113;42.018;23.986;2023-07-09T09:13:48;9.20;;;4.47;;
2213;SDS011;1113;42.018;23.986;2023-07-09T09:16:18;6.10;;;4.00;;
2213;SDS011;1113;42.018;23.986;2023-07-09T09:18:48;4.80;;;4.20;;
2213;SDS011;1113;42.018;23.986;2023-07-09T09:21:16;5.40;;;4.10;;
2213;SDS011;1113;42.018;23.986;2023-07-09T09:23:50;6.60;;;4.67;;
2213;SDS011;1113;42.018;23.986;2023-07-09T09:26:21;5.27;;;3.90;;
2213;SDS011;1113;42.018;23.986;2023-07-09T09:28:50;5.47;;;4.20;;
2213;SDS011;1113;42.018;23.986;2023-07-09T09:31:18;5.43;;;4.53;;
2213;SDS011;1113;42.018;23.986;2023-07-09T09:33:46;7.13;;;4.10;;
2213;SDS011;1113;42.018;23.986;2023-07-09T09:36:15;4.90;;;4.33;;
2213;SDS011;1113;42.018;23.986;2023-07-09T09:38:42;4.93;;;3.77;;
2213;SDS011;1113;42.018;23.986;2023-07-09T09:41:14;6.83;;;3.80;;
2213;SDS011;1113;42.018;23.986;2023-07-09T09:43:41;7.93;;;4.33;;
2213;SDS011;1113;42.018;23.986;2023-07-09T09:46:09;7.93;;;3.77;;
2213;SDS011;1113;42.018;23.986;2023-07-09T09:48:44;6.03;;;4.37;;
2213;SDS011;1113;42.018;23.986;2023-07-09T09:51:11;7.17;;;5.30;;
2213;SDS011;1113;42.018;23.986;2023-07-09T09:53:39;6.43;;;4.13;;
2213;SDS011;1113;42.018;23.986;2023-07-09T09:56:11;7.50;;;4.90;;
2213;SDS011;1113;42.018;23.986;2023-07-09T09:58:41;5.50;;;3.93;;
2213;SDS011;1113;42.018;23.986;2023-07-09T10:01:11;6.43;;;4.30;;
2213;SDS011;1113;42.018;23.986;2023-07-09T10:03:39;5.70;;;4.37;;
2213;SDS011;1113;42.018;23.986;2023-07-09T10:06:08;5.90;;;3.80;;
2213;SDS011;1113;42.018;23.986;2023-07-09T10:08:41;4.83;;;4.00;;
2213;SDS011;1113;42.018;23.986;2023-07-09T10:11:16;7.23;;;4.30;;
2213;SDS011;1113;42.018;23.986;2023-07-09T10:13:46;4.57;;;4.07;;
2213;SDS011;1113;42.018;23.986;2023-07-09T10:16:17;4.83;;;4.00;;
2213;SDS011;1113;42.018;23.986;2023-07-09T10:18:48;4.83;;;3.80;;
2213;SDS011;1113;42.018;23.986;2023-07-09T10:21:18;5.00;;;4.20;;
2213;SDS011;1113;42.018;23.986;2023-07-09T10:23:51;5.80;;;4.50;;
2213;SDS011;1113;42.018;23.986;2023-07-09T10:26:26;4.73;;;4.17;;
2213;SDS011;1113;42.018;23.986;2023-07-09T10:29:00;5.17;;;3.93;;
2213;SDS011;1113;42.018;23.986;2023-07-09T10:31:30;6.20;;;4.30;;
2213;SDS011;1113;42.018;23.986;2023-07-09T10:34:05;4.30;;;3.90;;
2213;SDS011;1113;42.018;23.986;2023-07-09T10:36:47;5.37;;;4.20;;
2213;SDS011;1113;42.018;23.986;2023-07-09T10:39:16;4.90;;;4.00;;
2213;SDS011;1113;42.018;23.986;2023-07-09T10:41:45;5.13;;;4.10;;
2213;SDS011;1113;42.018;23.986;2023-07-09T10:44:18;8.83;;;4.27;;
2213;SDS011;1113;42.018;23.986;2023-07-09T10:46:47;5.87;;;3.63;;
2213;SDS011;1113;42.018;23.986;2023-07-09T10:49:16;7.27;;;4.77;;
2213;SDS011;1113;42.018;23.986;2023-07-09T10:51:46;5.13;;;4.63;;
2213;SDS011;1113;42.018;23.986;2023-07-09T10:54:22;4.60;;;3.90;;
2213;SDS011;1113;42.018;23.986;2023-07-09T10:56:53;5.00;;;4.13;;
2213;SDS011;1113;42.018;23.986;2023-07-09T10:59:25;4.90;;;4.40;;
2213;SDS011;1113;42.018;23.986;2023-07-09T11:01:54;4.60;;;4.20;;
2213;SDS011;1113;42.018;23.986;2023-07-09T11:04:25;4.67;;;4.17;;
2213;SDS011;1113;42.018;23.986;2023-07-09T11:06:54;5.27;;;3.60;;
2213;SDS011;1113;42.018;23.986;2023-07-09T11:09:22;5.23;;;4.73;;
2213;SDS011;1113;42.018;23.986;2023-07-09T11:11:53;4.50;;;4.00;;
2213;SDS011;1113;42.018;23.986;2023-07-09T11:14:28;5.30;;;4.23;;
2213;SDS011;1113;42.018;23.986;2023-07-09T11:16:57;6.93;;;4.70;;
2213;SDS011;1113;42.018;23.986;2023-07-09T11:19:26;9.80;;;3.97;;
2213;SDS011;1113;42.018;23.986;2023-07-09T11:22:02;5.50;;;4.57;;
2213;SDS011;1113;42.018;23.986;2023-07-09T11:24:31;4.63;;;3.90;;
2213;SDS011;1113;42.018;23.986;2023-07-09T11:26:58;5.77;;;4.30;;
2213;SDS011;1113;42.018;23.986;2023-07-09T11:29:28;4.93;;;4.20;;
2213;SDS011;1113;42.018;23.986;2023-07-09T11:32:06;6.03;;;4.30;;
2213;SDS011;1113;42.018;23.986;2023-07-09T11:34:33;5.30;;;4.80;;
2213;SDS011;1113;42.018;23.986;2023-07-09T11:37:00;8.60;;;7.10;;
2213;SDS011;1113;42.018;23.986;2023-07-09T11:39:28;6.00;;;4.70;;
2213;SDS011;1113;42.018;23.986;2023-07-09T11:41:56;4.87;;;4.17;;
2213;SDS011;1113;42.018;23.986;2023-07-09T11:44:23;10.07;;;5.63;;
2213;SDS011;1113;42.018;23.986;2023-07-09T11:47:16;6.40;;;4.23;;
2213;SDS011;1113;42.018;23.986;2023-07-09T11:49:46;5.27;;;4.30;;
2213;SDS011;1113;42.018;23.986;2023-07-09T11:52:13;5.40;;;4.27;;
2213;SDS011;1113;42.018;23.986;2023-07-09T11:54:41;7.53;;;4.50;;
2213;SDS011;1113;42.018;23.986;2023-07-09T11:59:37;5.63;;;4.37;;
2213;SDS011;1113;42.018;23.986;2023-07-09T12:02:08;9.03;;;4.40;;
2213;SDS011;1113;42.018;23.986;2023-07-09T12:04:40;6.03;;;4.20;;
2213;SDS011;1113;42.018;23.986;2023-07-09T12:07:09;5.40;;;4.30;;
2213;SDS011;1113;42.018;23.986;2023-07-09T12:09:39;5.03;;;4.47;;
2213;SDS011;1113;42.018;23.986;2023-07-09T12:12:16;5.57;;;4.70;;
2213;SDS011;1113;42.018;23.986;2023-07-09T12:14:44;6.67;;;3.70;;
2213;SDS011;1113;42.018;23.986;2023-07-09T12:17:12;4.70;;;3.80;;
2213;SDS011;1113;42.018;23.986;2023-07-09T12:19:39;5.93;;;4.40;;
2213;SDS011;1113;42.018;23.986;2023-07-09T12:22:06;4.63;;;4.13;;
2213;SDS011;1113;42.018;23.986;2023-07-09T12:24:44;4.97;;;3.70;;
2213;SDS011;1113;42.018;23.986;2023-07-09T12:27:18;5.70;;;4.00;;
2213;SDS011;1113;42.018;23.986;2023-07-09T12:29:45;5.60;;;4.20;;
2213;SDS011;1113;42.018;23.986;2023-07-09T12:32:15;4.03;;;3.63;;
2213;SDS011;1113;42.018;23.986;2023-07-09T12:34:42;7.13;;;4.47;;
2213;SDS011;1113;42.018;23.986;2023-07-09T12:37:13;8.30;;;7.50;;
2213;SDS011;1113;42.018;23.986;2023-07-09T12:39:41;21.90;;;18.07;;
2213;SDS011;1113;42.018;23.986;2023-07-09T12:42:09;4.83;;;4.33;;
2213;SDS011;1113;42.018;23.986;2023-07-09T12:44:41;19.63;;;4.93;;
2213;SDS011;1113;42.018;23.986;2023-07-09T12:47:09;4.70;;;4.10;;
2213;SDS011;1113;42.018;23.986;2023-07-09T12:49:41;5.40;;;4.00;;
2213;SDS011;1113;42.018;23.986;2023-07-09T12:52:11;4.87;;;3.97;;
2213;SDS011;1113;42.018;23.986;2023-07-09T12:54:39;6.10;;;4.30;;
2213;SDS011;1113;42.018;23.986;2023-07-09T12:57:10;5.10;;;4.13;;
2213;SDS011;1113;42.018;23.986;2023-07-09T12:59:40;9.40;;;4.87;;
2213;SDS011;1113;42.018;23.986;2023-07-09T13:02:14;5.47;;;4.50;;
2213;SDS011;1113;42.018;23.986;2023-07-09T13:04:44;8.33;;;5.63;;
2213;SDS011;1113;42.018;23.986;2023-07-09T13:07:27;8.47;;;4.90;;
2213;SDS011;1113;42.018;23.986;2023-07-09T13:09:56;6.00;;;5.23;;
2213;SDS011;1113;42.018;23.986;2023-07-09T13:12:29;6.40;;;4.53;;
2213;SDS011;1113;42.018;23.986;2023-07-09T13:14:57;6.10;;;4.70;;
2213;SDS011;1113;42.018;23.986;2023-07-09T13:17:27;5.57;;;4.23;;
2213;SDS011;1113;42.018;23.986;2023-07-09T13:19:56;5.73;;;4.80;;
2213;SDS011;1113;42.018;23.986;2023-07-09T13:22:24;5.20;;;4.57;;
2213;SDS011;1113;42.018;23.986;2023-07-09T13:24:51;5.70;;;4.60;;
2213;SDS011;1113;42.018;23.986;2023-07-09T13:27:18;6.17;;;4.40;;
2213;SDS011;1113;42.018;23.986;2023-07-09T13:29:45;5.57;;;4.67;;
2213;SDS011;1113;42.018;23.986;2023-07-09T13:32:14;5.90;;;4.80;;
2213;SDS011;1113;42.018;23.986;2023-07-09T13:34:41;6.90;;;5.00;;
2213;SDS011;1113;42.018;23.986;2023-07-09T13:37:10;6.27;;;4.60;;
2213;SDS011;1113;42.018;23.986;2023-07-09T13:39:38;6.28;;;4.78;;
2213;SDS011;1113;42.018;23.986;2023-07-09T13:42:08;12.23;;;5.70;;
2213;SDS011;1113;42.018;23.986;2023-07-09T13:44:36;5.50;;;4.87;;
2213;SDS011;1113;42.018;23.986;2023-07-09T13:47:03;5.93;;;4.37;;
2213;SDS011;1113;42.018;23.986;2023-07-09T13:49:31;5.33;;;4.83;;
2213;SDS011;1113;42.018;23.986;2023-07-09T13:51:58;5.50;;;4.40;;
2213;SDS011;1113;42.018;23.986;2023-07-09T13:54:29;6.33;;;4.93;;
2213;SDS011;1113;42.018;23.986;2023-07-09T13:57:00;7.57;;;4.33;;
2213;SDS011;1113;42.018;23.986;2023-07-09T13:59:27;4.80;;;4.30;;
2213;SDS011;1113;42.018;23.986;2023-07-09T14:01:55;6.13;;;4.60;;
2213;SDS011;1113;42.018;23.986;2023-07-09T14:04:23;5.87;;;4.67;;
2213;SDS011;1113;42.018;23.986;2023-07-09T14:06:53;6.57;;;4.87;;
2213;SDS011;1113;42.018;23.986;2023-07-09T14:09:23;17.13;;;5.73;;
2213;SDS011;1113;42.018;23.986;2023-07-09T14:11:52;9.63;;;5.03;;
2213;SDS011;1113;42.018;23.986;2023-07-09T14:14:20;7.10;;;5.00;;
2213;SDS011;1113;42.018;23.986;2023-07-09T14:16:48;8.03;;;5.00;;
2213;SDS011;1113;42.018;23.986;2023-07-09T14:19:17;7.30;;;5.00;;
2213;SDS011;1113;42.018;23.986;2023-07-09T14:21:45;5.50;;;4.80;;
2213;SDS011;1113;42.018;23.986;2023-07-09T14:24:16;8.80;;;4.67;;
2213;SDS011;1113;42.018;23.986;2023-07-09T14:26:44;20.17;;;5.43;;
2213;SDS011;1113;42.018;23.986;2023-07-09T14:29:12;6.33;;;4.50;;
2213;SDS011;1113;42.018;23.986;2023-07-09T14:31:41;6.00;;;4.63;;
2213;SDS011;1113;42.018;23.986;2023-07-09T14:34:16;8.33;;;4.33;;
2213;SDS011;1113;42.018;23.986;2023-07-09T14:36:43;6.00;;;4.13;;
2213;SDS011;1113;42.018;23.986;2023-07-09T14:39:10;4.80;;;4.20;;
2213;SDS011;1113;42.018;23.986;2023-07-09T14:41:37;6.87;;;4.47;;
2213;SDS011;1113;42.018;23.986;2023-07-09T14:44:05;6.30;;;4.40;;
2213;SDS011;1113;42.018;23.986;2023-07-09T14:46:42;8.07;;;4.40;;
2213;SDS011;1113;42.018;23.986;2023-07-09T14:49:09;5.53;;;3.90;;
2213;SDS011;1113;42.018;23.986;2023-07-09T14:51:36;4.70;;;4.03;;
2213;SDS011;1113;42.018;23.986;2023-07-09T14:54:04;12.53;;;5.70;;
2213;SDS011;1113;42.018;23.986;2023-07-09T14:56:37;5.53;;;4.00;;
2213;SDS011;1113;42.018;23.986;2023-07-09T14:59:04;6.30;;;4.37;;
2213;SDS011;1113;42.018;23.986;2023-07-09T15:01:31;5.10;;;3.80;;
2213;SDS011;1113;42.018;23.986;2023-07-09T15:04:00;5.90;;;4.63;;
2213;SDS011;1113;42.018;23.986;2023-07-09T15:06:33;5.37;;;4.17;;
2213;SDS011;1113;42.018;23.986;2023-07-09T15:09:02;4.70;;;4.00;;
2213;SDS011;1113;42.018;23.986;2023-07-09T15:11:29;6.50;;;4.50;;
2213;SDS011;1113;42.018;23.986;2023-07-09T15:13:56;5.03;;;4.53;;